Time;durP1;ratioP1;P1;durP2;ratioP2;P2;SDS_P1;SDS_P2;PMS_P1;PMS_P2;Temp;Humidity;BMP_temperature;BMP_pressure;BME280_temperature;BME280_humidity;BME280_pressure;Samples;Min_cycle;Max_cycle;Signal;HPM_P1;HPM_P2
2022/06/11 00:01:28;;;;;;;11.43;4.13;;;15.60;99.90;;;;;;5040904;28;20052;-44
2022/06/11 00:03:58;;;;;;;11.18;4.28;;;15.60;99.90;;;;;;5020655;28;20372;-45
2022/06/11 00:06:25;;;;;;;7.55;3.30;;;15.50;99.90;;;;;;5042490;28;20044;-46
2022/06/11 00:08:52;;;;;;;8.65;3.60;;;15.50;99.90;;;;;;5041531;28;20052;-48
2022/06/11 00:11:18;;;;;;;13.95;3.80;;;15.50;99.90;;;;;;5041588;28;20425;-45
2022/06/11 00:13:45;;;;;;;12.82;4.45;;;15.40;99.90;;;;;;5039580;28;20045;-44
2022/06/11 00:16:12;;;;;;;12.02;3.88;;;15.40;99.90;;;;;;5023545;28;20437;-47
2022/06/11 00:18:43;;;;;;;9.55;3.28;;;15.40;99.90;;;;;;5041647;28;20514;-44
2022/06/11 00:21:10;;;;;;;11.90;3.95;;;15.30;99.90;;;;;;5023556;28;20110;-45
2022/06/11 00:23:36;;;;;;;11.85;3.40;;;15.40;99.90;;;;;;5041528;28;20044;-47
2022/06/11 00:26:03;;;;;;;10.68;3.47;;;15.30;99.90;;;;;;5018490;28;20095;-45
2022/06/11 00:28:29;;;;;;;14.13;4.00;;;15.30;99.90;;;;;;5040741;28;20148;-45
2022/06/11 00:30:56;;;;;;;8.88;2.95;;;15.30;99.90;;;;;;5040910;28;20593;-45
2022/06/11 00:33:22;;;;;;;11.40;3.42;;;15.20;99.90;;;;;;5040872;28;20376;-45
2022/06/11 00:35:48;;;;;;;8.77;3.20;;;15.10;99.90;;;;;;5040150;28;20045;-44
2022/06/11 00:38:14;;;;;;;8.68;2.97;;;15.10;99.90;;;;;;5040875;28;20513;-46
2022/06/11 00:40:45;;;;;;;10.40;2.80;;;15.10;99.90;;;;;;5019860;28;20056;-45
2022/06/11 00:43:15;;;;;;;10.82;2.97;;;15.10;99.90;;;;;;5018323;28;20501;-46
2022/06/11 00:45:51;;;;;;;12.75;3.67;;;15.00;99.90;;;;;;5040713;28;20127;-45
2022/06/11 00:48:36;;;;;;;10.05;3.05;;;14.90;99.90;;;;;;5025518;28;20498;-45
2022/06/11 00:51:12;;;;;;;13.13;3.92;;;14.90;99.90;;;;;;5044396;28;20056;-45
2022/06/11 00:54:03;;;;;;;13.23;3.50;;;14.90;99.90;;;;;;5042178;28;20057;-45
2022/06/11 00:56:39;;;;;;;7.95;2.85;;;14.90;99.90;;;;;;4965738;28;20158;-45
2022/06/11 00:59:09;;;;;;;12.05;3.00;;;14.90;99.90;;;;;;4962831;28;20063;-44
2022/06/11 01:01:35;;;;;;;10.55;3.53;;;14.80;99.90;;;;;;4958798;28;20065;-44
2022/06/11 01:04:23;;;;;;;12.50;3.20;;;14.80;99.90;;;;;;4958524;28;20059;-46
2022/06/11 01:07:07;;;;;;;10.05;3.05;;;14.70;99.90;;;;;;4957447;28;20169;-45
2022/06/11 01:09:46;;;;;;;11.80;3.08;;;14.50;99.90;;;;;;4973003;28;20436;-45
2022/06/11 01:12:45;;;;;;;14.45;3.72;;;14.50;99.90;;;;;;4958807;28;20062;-45
2022/06/11 01:15:15;;;;;;;9.55;3.50;;;14.40;99.90;;;;;;4957664;28;20073;-45
2022/06/11 01:17:43;;;;;;;12.10;3.90;;;14.30;99.90;;;;;;4958687;28;20055;-45
2022/06/11 01:20:39;;;;;;;14.20;3.83;;;14.30;99.90;;;;;;4958057;28;20093;-44
2022/06/11 01:23:23;;;;;;;12.18;3.22;;;14.20;99.90;;;;;;4958580;28;20487;-46
2022/06/11 01:26:08;;;;;;;13.40;3.63;;;14.20;99.90;;;;;;4953644;28;20557;-44
2022/06/11 01:29:07;;;;;;;10.00;3.25;;;14.20;99.90;;;;;;4958342;28;20430;-45
2022/06/11 01:31:40;;;;;;;11.85;4.20;;;14.20;99.90;;;;;;4940969;28;20081;-45
2022/06/11 01:34:38;;;;;;;11.90;3.60;;;14.20;99.90;;;;;;5017356;28;20100;-44
2022/06/11 01:37:11;;;;;;;13.63;3.83;;;14.20;99.90;;;;;;5034611;28;20059;-47
2022/06/11 01:39:49;;;;;;;10.18;3.72;;;14.20;99.90;;;;;;5015182;28;20473;-44
2022/06/11 01:42:32;;;;;;;11.75;3.20;;;14.10;99.90;;;;;;5039777;28;20044;-45
2022/06/11 01:45:15;;;;;;;10.40;3.25;;;14.10;99.90;;;;;;5018794;28;20060;-45
2022/06/11 01:47:42;;;;;;;10.05;3.60;;;14.00;99.90;;;;;;5035415;28;20056;-45
2022/06/11 01:50:12;;;;;;;9.18;3.60;;;14.00;99.90;;;;;;5040738;28;20126;-46
2022/06/11 01:53:01;;;;;;;11.15;4.05;;;13.90;99.90;;;;;;5039544;28;20547;-44
2022/06/11 01:55:42;;;;;;;11.45;3.20;;;13.90;99.90;;;;;;5022382;28;20102;-44
2022/06/11 01:58:38;;;;;;;9.40;3.28;;;13.90;99.90;;;;;;5040459;28;20041;-45
2022/06/11 02:01:13;;;;;;;12.57;3.63;;;13.90;99.90;;;;;;5040686;28;20161;-45
2022/06/11 02:04:11;;;;;;;13.13;4.53;;;13.90;99.90;;;;;;5040997;28;20045;-44
2022/06/11 02:07:05;;;;;;;10.27;3.70;;;13.80;99.90;;;;;;5041982;28;20052;-45
2022/06/11 02:09:49;;;;;;;;;;;13.80;99.90;;;;;;5039937;28;20076;-45
2022/06/11 02:12:40;;;;;;;10.77;4.30;;;13.80;99.90;;;;;;5044451;28;19925;-47
2022/06/11 02:15:17;;;;;;;13.38;5.05;;;13.80;99.90;;;;;;5043616;28;20053;-46
2022/06/11 02:17:47;;;;;;;17.63;4.35;;;13.80;99.90;;;;;;5043849;28;20179;-45
2022/06/11 02:20:22;;;;;;;14.73;5.22;;;13.80;99.90;;;;;;5043258;28;20041;-45
2022/06/11 02:22:56;;;;;;;11.70;4.43;;;13.80;99.90;;;;;;5024886;28;20057;-45
2022/06/11 02:25:27;;;;;;;17.27;4.50;;;13.80;99.90;;;;;;5043141;28;20562;-45
2022/06/11 02:27:56;;;;;;;11.32;3.95;;;13.90;99.90;;;;;;5025154;28;20126;-44
2022/06/11 02:30:25;;;;;;;12.38;4.05;;;13.90;99.90;;;;;;5043035;28;20044;-44
2022/06/11 02:32:51;;;;;;;11.07;3.83;;;13.90;99.90;;;;;;5042974;28;20499;-45
2022/06/11 02:35:31;;;;;;;10.50;4.15;;;14.00;99.90;;;;;;5042562;28;20107;-44
2022/06/11 02:37:57;;;;;;;14.85;3.80;;;14.00;99.90;;;;;;5042669;28;20049;-44
2022/06/11 02:40:29;;;;;;;16.55;4.60;;;14.00;99.90;;;;;;5040514;28;20059;-45
2022/06/11 02:42:55;;;;;;;15.77;4.85;;;14.00;99.90;;;;;;5043857;28;20191;-45
2022/06/11 02:45:21;;;;;;;15.32;4.88;;;13.90;99.90;;;;;;5041605;28;20564;-44
2022/06/11 02:47:50;;;;;;;14.95;4.57;;;13.90;99.90;;;;;;5042942;28;20060;-45
2022/06/11 02:50:29;;;;;;;12.60;4.00;;;13.80;99.90;;;;;;5043000;28;20044;-46
2022/06/11 02:52:58;;;;;;;15.00;4.78;;;13.80;99.90;;;;;;5043109;28;20052;-44
2022/06/11 02:55:25;;;;;;;12.95;4.97;;;13.80;99.90;;;;;;5041997;28;20052;-44
2022/06/11 02:57:51;;;;;;;10.55;4.15;;;13.80;99.90;;;;;;5042367;28;20053;-46
2022/06/11 03:00:22;;;;;;;16.55;4.78;;;13.70;99.90;;;;;;5021335;28;20477;-46
2022/06/11 03:02:48;;;;;;;15.10;4.80;;;13.70;99.90;;;;;;5017912;28;20121;-45
2022/06/11 03:05:29;;;;;;;10.77;5.25;;;13.70;99.90;;;;;;5042851;28;20444;-44
2022/06/11 03:07:56;;;;;;;15.20;4.50;;;13.60;99.90;;;;;;5042733;28;20073;-44
2022/06/11 03:10:24;;;;;;;14.52;5.25;;;13.70;99.90;;;;;;5042594;28;20048;-45
2022/06/11 03:12:51;;;;;;;11.57;4.10;;;13.60;99.90;;;;;;5042909;28;20057;-45
2022/06/11 03:15:17;;;;;;;14.43;4.18;;;13.60;99.90;;;;;;5044023;28;20147;-44
2022/06/11 03:17:45;;;;;;;9.82;4.10;;;13.60;99.90;;;;;;5028432;28;20052;-45
2022/06/11 03:20:12;;;;;;;16.55;4.80;;;13.60;99.90;;;;;;5024970;28;20065;-45
2022/06/11 03:22:38;;;;;;;11.55;4.43;;;13.60;99.90;;;;;;5043009;28;20794;-51
2022/06/11 03:25:05;;;;;;;22.65;5.85;;;13.70;99.90;;;;;;5042119;28;20107;-45
2022/06/11 03:27:31;;;;;;;18.75;4.57;;;13.70;99.90;;;;;;5041220;28;20512;-45
2022/06/11 03:29:57;;;;;;;13.60;4.32;;;13.70;99.90;;;;;;5024802;28;20132;-44
2022/06/11 03:32:23;;;;;;;14.57;4.18;;;13.70;99.90;;;;;;5042228;28;20041;-47
2022/06/11 03:34:49;;;;;;;12.20;4.68;;;13.80;99.90;;;;;;5023005;28;20049;-45
2022/06/11 03:37:15;;;;;;;14.10;4.38;;;13.80;99.90;;;;;;5023358;28;20049;-44
2022/06/11 03:39:41;;;;;;;17.27;5.20;;;13.80;99.90;;;;;;5042251;28;20108;-45
2022/06/11 03:42:07;;;;;;;17.40;5.07;;;13.90;99.90;;;;;;5041423;28;20041;-44
2022/06/11 03:44:34;;;;;;;19.60;5.10;;;14.00;99.90;;;;;;5041589;28;20149;-44
2022/06/11 03:47:00;;;;;;;17.27;5.85;;;14.00;99.90;;;;;;5042569;28;20231;-44
2022/06/11 03:49:26;;;;;;;21.55;5.90;;;14.10;99.90;;;;;;5042238;28;20445;-44
2022/06/11 03:51:52;;;;;;;17.17;4.25;;;14.20;99.90;;;;;;5041208;28;20047;-46
2022/06/11 03:54:18;;;;;;;14.75;4.43;;;14.30;99.90;;;;;;5023410;28;20083;-45
2022/06/11 03:56:46;;;;;;;18.58;4.63;;;14.40;99.90;;;;;;5042052;28;20041;-44
2022/06/11 03:59:12;;;;;;;18.08;5.45;;;14.70;99.90;;;;;;5041659;28;20053;-44
2022/06/11 04:01:40;;;;;;;14.75;4.90;;;15.10;99.90;;;;;;5041339;28;20045;-45
2022/06/11 04:04:10;;;;;;;16.65;4.68;;;15.40;99.90;;;;;;5041105;28;20079;-46
2022/06/11 04:06:45;;;;;;;16.42;5.10;;;15.90;99.90;;;;;;5041580;28;20045;-44
2022/06/11 04:09:21;;;;;;;14.32;4.30;;;16.30;99.90;;;;;;5023791;28;20071;-45
2022/06/11 04:11:46;;;;;;;16.70;4.22;;;16.80;99.90;;;;;;5041614;28;20045;-44
2022/06/11 04:14:13;;;;;;;10.13;3.70;;;17.30;99.90;;;;;;5041354;28;20398;-44
2022/06/11 04:16:45;;;;;;;15.52;4.38;;;17.70;99.90;;;;;;5020683;28;20088;-45
2022/06/11 04:19:28;;;;;;;18.83;5.13;;;18.10;99.90;;;;;;5041952;28;20049;-46
2022/06/11 04:21:55;;;;;;;;;;;18.40;99.90;;;;;;5022704;28;20096;-46
2022/06/11 04:24:21;;;;;;;14.75;4.43;;;18.70;99.90;;;;;;5023933;28;19924;-45
2022/06/11 04:26:49;;;;;;;16.98;4.63;;;19.30;99.90;;;;;;5042960;28;20446;-46
2022/06/11 04:29:18;;;;;;;16.70;5.22;;;19.80;99.90;;;;;;5044273;28;20115;-44
2022/06/11 04:31:47;;;;;;;15.35;5.07;;;20.10;99.90;;;;;;5025343;28;20056;-47
2022/06/11 04:34:14;;;;;;;13.88;4.88;;;20.50;99.90;;;;;;5019545;28;20057;-44
2022/06/11 04:36:42;;;;;;;17.92;4.97;;;20.80;99.90;;;;;;5034399;28;20056;-45
2022/06/11 04:39:09;;;;;;;11.43;4.00;;;20.90;99.90;;;;;;5041320;28;20045;-45
2022/06/11 04:41:35;;;;;;;18.30;4.80;;;20.50;99.90;;;;;;5019814;28;20064;-47
2022/06/11 04:44:02;;;;;;;19.60;5.75;;;20.00;99.90;;;;;;5003607;28;20053;-44
2022/06/11 04:46:28;;;;;;;18.02;5.55;;;19.50;99.90;;;;;;5033536;28;20115;-45
2022/06/11 04:48:53;;;;;;;15.60;5.88;;;19.60;99.90;;;;;;5041663;28;20629;-44
2022/06/11 04:51:20;;;;;;;23.92;5.97;;;20.10;99.90;;;;;;5040604;28;20060;-46
2022/06/11 04:53:46;;;;;;;20.65;4.97;;;20.50;99.90;;;;;;5040483;28;20231;-44
2022/06/11 04:56:19;;;;;;;21.23;6.28;;;20.60;99.90;;;;;;5041188;28;20091;-46
2022/06/11 04:58:46;;;;;;;19.65;6.40;;;20.70;99.90;;;;;;5041717;28;20106;-47
2022/06/11 05:01:12;;;;;;;16.85;5.50;;;20.80;99.90;;;;;;5040778;28;20080;-46
2022/06/11 05:03:38;;;;;;;23.08;6.00;;;21.30;99.90;;;;;;5040493;28;20037;-44
2022/06/11 05:06:04;;;;;;;20.45;6.53;;;22.00;99.90;;;;;;5021714;28;20091;-46
2022/06/11 05:08:31;;;;;;;21.70;5.85;;;22.50;99.90;;;;;;5040748;28;20044;-45
2022/06/11 05:10:57;;;;;;;20.70;6.38;;;22.80;99.90;;;;;;5040185;28;20052;-44
2022/06/11 05:13:23;;;;;;;21.92;6.65;;;23.20;99.90;;;;;;5039641;28;20587;-45
2022/06/11 05:15:51;;;;;;;22.50;6.90;;;22.60;99.90;;;;;;5039676;28;20056;-46
2022/06/11 05:18:18;;;;;;;18.30;7.03;;;22.40;99.90;;;;;;5041217;28;20142;-51
2022/06/11 05:20:45;;;;;;;20.55;5.35;;;22.00;99.90;;;;;;5005466;28;20139;-45
2022/06/11 05:23:12;;;;;;;20.45;6.30;;;22.50;99.90;;;;;;5039978;28;20041;-45
2022/06/11 05:25:39;;;;;;;18.20;6.65;;;23.40;99.90;;;;;;5039481;28;20056;-46
2022/06/11 05:28:07;;;;;;;23.33;7.47;;;23.90;99.90;;;;;;5022823;28;20053;-45
2022/06/11 05:30:34;;;;;;;19.85;6.85;;;24.40;99.90;;;;;;5040742;28;20048;-45
2022/06/11 05:33:01;;;;;;;27.05;7.53;;;24.40;99.90;;;;;;5039572;28;20052;-45
2022/06/11 05:35:30;;;;;;;21.30;6.47;;;24.50;99.90;;;;;;5040008;28;20179;-46
2022/06/11 05:37:58;;;;;;;21.98;6.70;;;24.80;99.90;;;;;;5040175;28;20048;-45
2022/06/11 05:40:27;;;;;;;20.27;6.45;;;25.30;99.90;;;;;;5012159;28;20136;-47
2022/06/11 05:42:52;;;;;;;19.60;6.00;;;26.20;99.90;;;;;;5021281;28;20491;-46
2022/06/11 05:45:22;;;;;;;22.33;6.13;;;26.20;99.90;;;;;;5006210;28;20059;-46
2022/06/11 05:47:50;;;;;;;24.67;6.72;;;26.40;99.90;;;;;;5022502;28;20062;-46
2022/06/11 05:50:23;;;;;;;22.48;7.22;;;26.60;99.90;;;;;;5003566;28;20099;-48
2022/06/11 05:52:49;;;;;;;24.63;7.45;;;27.10;99.90;;;;;;5021146;28;20053;-49
2022/06/11 05:55:19;;;;;;;24.77;7.90;;;27.20;99.20;;;;;;5024157;28;20090;-43
2022/06/11 05:57:47;;;;;;;19.80;6.70;;;27.30;98.60;;;;;;5040072;28;20119;-42
2022/06/11 06:00:16;;;;;;;16.42;6.50;;;27.80;98.80;;;;;;5040481;28;20084;-46
2022/06/11 06:02:44;;;;;;;23.05;7.72;;;28.10;98.50;;;;;;5039977;28;20049;-46
2022/06/11 06:05:19;;;;;;;24.00;7.43;;;28.30;97.30;;;;;;5018806;28;20575;-46
2022/06/11 06:07:45;;;;;;;20.00;6.53;;;28.20;97.80;;;;;;5039668;28;20056;-46
2022/06/11 06:10:11;;;;;;;22.73;6.70;;;28.70;97.20;;;;;;5018888;28;20053;-46
2022/06/11 06:12:38;;;;;;;23.63;8.13;;;29.30;96.70;;;;;;5016308;28;20059;-48
2022/06/11 06:15:10;;;;;;;21.55;6.95;;;29.10;95.40;;;;;;5039601;28;20052;-46
2022/06/11 06:17:39;;;;;;;21.05;6.90;;;29.10;95.20;;;;;;5039419;28;20049;-46
2022/06/11 06:20:08;;;;;;;21.52;6.88;;;29.00;95.10;;;;;;5019937;28;20170;-47
2022/06/11 06:22:34;;;;;;;21.05;7.18;;;28.80;95.20;;;;;;5040338;28;20056;-46
2022/06/11 06:25:00;;;;;;;20.23;7.40;;;29.30;95.00;;;;;;5040248;28;20041;-47
2022/06/11 06:27:26;;;;;;;19.45;7.30;;;29.50;94.40;;;;;;5039732;28;20060;-47
2022/06/11 06:29:52;;;;;;;20.77;6.68;;;29.80;94.20;;;;;;5039653;28;20041;-46
2022/06/11 06:32:18;;;;;;;19.52;6.65;;;29.80;93.50;;;;;;5039766;28;20187;-47
2022/06/11 06:34:44;;;;;;;18.83;5.53;;;29.80;93.40;;;;;;5020745;28;20475;-45
2022/06/11 06:37:10;;;;;;;21.98;6.30;;;29.90;93.20;;;;;;5040077;28;20049;-47
2022/06/11 06:39:35;;;;;;;22.08;7.15;;;29.80;92.10;;;;;;5038745;28;20135;-47
2022/06/11 06:42:01;;;;;;;18.17;7.15;;;29.90;92.60;;;;;;5021029;28;20053;-45
2022/06/11 06:44:28;;;;;;;17.95;7.13;;;29.70;92.70;;;;;;5038469;28;20045;-46
2022/06/11 06:46:54;;;;;;;20.23;7.28;;;29.30;92.30;;;;;;5037295;28;20583;-47
2022/06/11 06:49:20;;;;;;;19.63;6.30;;;29.40;92.50;;;;;;5036458;28;20487;-47
2022/06/11 06:51:46;;;;;;;18.73;5.80;;;29.20;91.90;;;;;;5038119;28;20428;-46
2022/06/11 06:54:12;;;;;;;19.20;6.03;;;29.50;92.30;;;;;;5037799;28;20052;-46
2022/06/11 06:56:37;;;;;;;19.75;6.78;;;28.80;92.30;;;;;;5040337;28;20084;-49
2022/06/11 06:59:05;;;;;;;20.50;6.35;;;27.90;92.40;;;;;;5035324;28;20045;-46
2022/06/11 07:01:31;;;;;;;21.05;7.25;;;27.80;93.40;;;;;;5042105;28;20567;-47
2022/06/11 07:03:58;;;;;;;20.42;6.38;;;28.10;93.40;;;;;;5044481;28;20049;-47
2022/06/11 07:06:31;;;;;;;19.45;6.47;;;28.60;93.30;;;;;;5002639;28;20049;-49
2022/06/11 07:08:57;;;;;;;18.85;6.03;;;28.30;92.20;;;;;;5023718;28;20520;-50
2022/06/11 07:11:22;;;;;;;17.92;6.00;;;28.00;92.90;;;;;;5038420;28;20176;-48
2022/06/11 07:13:48;;;;;;;20.50;6.35;;;27.40;93.50;;;;;;5041426;28;20041;-50
2022/06/11 07:16:17;;;;;;;17.25;6.50;;;27.50;93.50;;;;;;5042148;28;20504;-48
2022/06/11 07:18:57;;;;;;;19.08;6.95;;;27.80;93.20;;;;;;5037774;28;20056;-47
2022/06/11 07:21:32;;;;;;;18.88;6.22;;;27.80;92.40;;;;;;5042276;28;20493;-47
2022/06/11 07:24:07;;;;;;;19.45;6.00;;;27.50;92.70;;;;;;5042051;28;20076;-48
2022/06/11 07:26:39;;;;;;;19.58;6.38;;;27.50;93.40;;;;;;5042393;28;20504;-46
2022/06/11 07:29:15;;;;;;;19.15;6.28;;;26.90;93.40;;;;;;5042335;28;20052;-46
2022/06/11 07:31:44;;;;;;;16.23;5.47;;;26.30;93.60;;;;;;5042187;28;20049;-47
2022/06/11 07:34:13;;;;;;;22.02;6.22;;;25.40;93.60;;;;;;5020724;28;20372;-47
2022/06/11 07:36:39;;;;;;;16.95;6.18;;;25.30;95.00;;;;;;5039937;28;20044;-46
2022/06/11 07:39:05;;;;;;;20.10;6.22;;;25.30;95.30;;;;;;5037096;28;20103;-46
2022/06/11 07:41:34;;;;;;;16.98;5.50;;;25.50;95.20;;;;;;5017986;28;20487;-46
2022/06/11 07:44:00;;;;;;;22.70;7.82;;;25.50;95.20;;;;;;5041738;28;20064;-46
2022/06/11 07:50:43;;;;;;;23.50;6.55;;;25.10;95.80;;;;;;5037731;28;20108;-47
2022/06/11 07:53:12;;;;;;;22.13;5.13;;;24.50;95.40;;;;;;5038350;28;20056;-47
2022/06/11 07:55:44;;;;;;;17.13;5.68;;;24.40;95.40;;;;;;5042609;28;20099;-47
2022/06/11 07:58:14;;;;;;;19.60;6.30;;;24.50;95.10;;;;;;5041967;28;20049;-47
2022/06/11 08:00:43;;;;;;;17.20;6.15;;;24.60;95.90;;;;;;5021272;28;20061;-45
2022/06/11 08:03:10;;;;;;;19.50;5.65;;;24.60;96.10;;;;;;5041618;28;20132;-45
2022/06/11 08:05:36;;;;;;;18.90;5.93;;;24.60;96.20;;;;;;5023814;28;20139;-44
2022/06/11 08:08:04;;;;;;;19.38;5.97;;;24.50;95.40;;;;;;5040792;28;20601;-46
2022/06/11 08:10:30;;;;;;;19.45;6.68;;;24.60;96.80;;;;;;5023946;28;20480;-46
2022/06/11 08:12:57;;;;;;;21.63;6.75;;;24.70;96.00;;;;;;5023774;28;20056;-47
2022/06/11 08:15:24;;;;;;;19.48;5.43;;;24.40;96.20;;;;;;5041362;28;20619;-46
2022/06/11 08:17:51;;;;;;;21.13;5.70;;;24.40;96.50;;;;;;5023385;28;20233;-44
2022/06/11 08:20:21;;;;;;;17.02;5.88;;;24.30;95.90;;;;;;5023432;28;20061;-46
2022/06/11 08:22:47;;;;;;;18.70;5.75;;;24.30;96.60;;;;;;5040886;28;20101;-45
2022/06/11 08:25:13;;;;;;;20.98;5.82;;;24.40;96.90;;;;;;5020165;28;20057;-48
2022/06/11 08:27:39;;;;;;;17.38;6.38;;;24.30;97.00;;;;;;5020754;28;20064;-44
2022/06/11 08:30:05;;;;;;;19.90;6.15;;;24.30;96.80;;;;;;5041936;28;20049;-46
2022/06/11 08:32:31;;;;;;;18.58;6.50;;;24.30;96.10;;;;;;5042049;28;20127;-47
2022/06/11 08:34:57;;;;;;;18.25;5.20;;;24.40;96.40;;;;;;5041577;28;20041;-45
2022/06/11 08:37:23;;;;;;;16.38;5.22;;;24.40;96.30;;;;;;5041878;28;20045;-48
2022/06/11 08:39:49;;;;;;;16.95;5.45;;;24.60;96.70;;;;;;5035841;28;20049;-46
2022/06/11 08:42:43;;;;;;;17.20;5.30;;;24.50;95.40;;;;;;5041489;28;20056;-45
2022/06/11 08:45:20;;;;;;;16.75;4.40;;;24.40;95.60;;;;;;5017246;28;20147;-46
2022/06/11 08:47:54;;;;;;;14.02;5.30;;;24.30;95.50;;;;;;5039072;28;20055;-48
2022/06/11 08:50:31;;;;;;;14.82;4.65;;;24.10;96.70;;;;;;5022711;28;20581;-47
2022/06/11 08:52:57;;;;;;;16.85;5.05;;;24.10;95.70;;;;;;5040616;28;20520;-46
2022/06/11 08:55:31;;;;;;;14.05;4.00;;;24.10;96.60;;;;;;5021648;28;20063;-46
2022/06/11 08:58:34;;;;;;;12.23;4.00;;;24.10;94.40;;;;;;5024004;28;20055;-47
2022/06/11 09:01:14;;;;;;;12.07;3.65;;;24.10;95.10;;;;;;5040699;28;20055;-46
2022/06/11 09:03:49;;;;;;;12.40;4.65;;;24.10;94.90;;;;;;5041439;28;20143;-46
2022/06/11 09:06:34;;;;;;;11.05;3.95;;;24.00;93.70;;;;;;5038016;28;20052;-48
2022/06/11 09:09:14;;;;;;;15.80;4.57;;;24.10;94.20;;;;;;5024408;28;20488;-47
2022/06/11 09:11:49;;;;;;;12.77;3.88;;;24.10;94.80;;;;;;5040328;28;20439;-48
2022/06/11 09:14:23;;;;;;;13.10;3.70;;;24.00;93.00;;;;;;5040845;28;20051;-46
2022/06/11 09:17:31;;;;;;;13.38;3.88;;;24.10;94.30;;;;;;5041385;28;20583;-49
2022/06/11 09:20:21;;;;;;;12.40;3.53;;;24.10;92.80;;;;;;4941879;29;20153;-47
2022/06/11 09:23:03;;;;;;;9.75;2.75;;;24.10;91.30;;;;;;4924234;29;20051;-48
2022/06/11 09:25:41;;;;;;;13.65;4.13;;;24.10;92.30;;;;;;4940119;29;20054;-48
2022/06/11 09:28:38;;;;;;;15.10;4.30;;;24.00;92.80;;;;;;4940219;29;20151;-47
2022/06/11 09:31:47;;;;;;;16.00;4.70;;;24.10;94.30;;;;;;4940201;28;20090;-47
2022/06/11 09:34:19;;;;;;;14.85;4.78;;;23.90;94.20;;;;;;4883418;29;20060;-47
2022/06/11 09:37:17;;;;;;;14.60;4.35;;;23.90;94.70;;;;;;4884455;29;20472;-45
2022/06/11 09:40:04;;;;;;;16.42;5.20;;;24.00;93.80;;;;;;4804316;29;20069;-48
2022/06/11 09:42:59;;;;;;;16.60;4.95;;;24.20;95.90;;;;;;4805281;29;20058;-47
2022/06/11 09:45:27;;;;;;;17.20;4.45;;;24.50;95.40;;;;;;4782354;29;20131;-48
2022/06/11 09:47:56;;;;;;;14.70;4.82;;;24.60;95.30;;;;;;4810760;29;20057;-47
2022/06/11 09:50:35;;;;;;;16.45;4.32;;;24.60;95.80;;;;;;4814418;29;20115;-48
2022/06/11 09:53:33;;;;;;;15.82;5.13;;;24.50;95.70;;;;;;4847536;29;20068;-48
2022/06/11 09:56:06;;;;;;;14.88;4.20;;;24.50;95.10;;;;;;4844621;29;20045;-48
2022/06/11 09:58:48;;;;;;;14.73;5.03;;;24.60;95.40;;;;;;4838731;29;20162;-49
2022/06/11 10:01:31;;;;;;;16.80;5.00;;;24.60;95.80;;;;;;4846010;29;20061;-48
2022/06/11 10:04:05;;;;;;;11.88;4.43;;;24.40;94.70;;;;;;4827815;29;20065;-48
2022/06/11 10:06:40;;;;;;;16.80;5.28;;;24.40;95.00;;;;;;4838857;29;20065;-46
2022/06/11 10:09:36;;;;;;;12.52;4.85;;;24.30;94.10;;;;;;4823446;29;20061;-48
2022/06/11 10:12:08;;;;;;;12.60;3.97;;;24.60;95.40;;;;;;4874953;29;20060;-49
2022/06/11 10:15:00;;;;;;;19.42;4.22;;;24.70;94.60;;;;;;4864519;29;20477;-50
2022/06/11 10:17:59;;;;;;;14.15;4.35;;;24.80;95.30;;;;;;4942081;28;20780;-49
2022/06/11 10:20:34;;;;;;;15.85;4.25;;;24.60;93.80;;;;;;4959331;28;20050;-46
2022/06/11 10:23:03;;;;;;;14.80;4.65;;;24.50;95.70;;;;;;4948480;28;20073;-46
2022/06/11 10:25:55;;;;;;;17.30;4.80;;;24.60;95.50;;;;;;4958607;28;20639;-46
2022/06/11 10:28:52;;;;;;;17.33;5.25;;;24.40;94.70;;;;;;4947642;28;20051;-48
2022/06/11 10:31:24;;;;;;;14.27;4.55;;;24.20;94.30;;;;;;4929816;29;20143;-47
2022/06/11 10:34:05;;;;;;;16.90;5.20;;;24.20;95.20;;;;;;4925447;29;20227;-47
2022/06/11 10:36:47;;;;;;;16.08;4.70;;;24.50;95.50;;;;;;4930054;29;20296;-45
2022/06/11 10:39:46;;;;;;;13.68;4.70;;;24.70;95.40;;;;;;4943693;29;20070;-46
2022/06/11 10:42:28;;;;;;;17.27;5.53;;;24.30;94.80;;;;;;4868634;29;20584;-47
2022/06/11 10:44:57;;;;;;;14.07;4.13;;;24.40;94.60;;;;;;4867467;29;20061;-48
2022/06/11 10:47:32;;;;;;;12.63;4.80;;;24.50;95.00;;;;;;4853088;29;20061;-50
2022/06/11 10:50:11;;;;;;;16.42;5.03;;;24.60;95.00;;;;;;4849669;29;20128;-47
2022/06/11 10:52:41;;;;;;;11.85;4.05;;;24.90;95.80;;;;;;4849535;29;20069;-50
2022/06/11 10:55:15;;;;;;;14.82;4.30;;;24.80;93.80;;;;;;4832964;29;20068;-49
2022/06/11 10:57:48;;;;;;;13.50;4.28;;;24.80;95.20;;;;;;4839295;29;20137;-48
2022/06/11 11:00:18;;;;;;;18.35;5.70;;;24.80;94.80;;;;;;4848224;29;20549;-48
2022/06/11 11:02:51;;;;;;;12.32;3.85;;;24.90;95.30;;;;;;4850160;29;20073;-48
2022/06/11 11:05:19;;;;;;;16.33;4.20;;;24.70;93.70;;;;;;4849449;29;20765;-46
2022/06/11 11:07:55;;;;;;;14.30;4.25;;;24.50;93.40;;;;;;4873969;29;20122;-46
2022/06/11 11:10:35;;;;;;;14.93;4.90;;;24.60;94.20;;;;;;4923570;29;20058;-49
2022/06/11 11:13:17;;;;;;;13.60;3.97;;;24.30;94.50;;;;;;4921604;29;20511;-47
2022/06/11 11:15:51;;;;;;;13.35;4.10;;;24.00;94.40;;;;;;4924188;29;20063;-48
2022/06/11 11:18:31;;;;;;;13.82;4.20;;;23.90;93.70;;;;;;4946368;28;20057;-46
2022/06/11 11:20:57;;;;;;;15.05;4.57;;;23.50;93.90;;;;;;5024297;28;20476;-46
2022/06/11 11:23:35;;;;;;;13.43;4.03;;;23.30;94.20;;;;;;5024432;28;20045;-47
2022/06/11 11:26:12;;;;;;;16.58;4.70;;;23.20;94.20;;;;;;5024646;28;20053;-49
2022/06/11 11:28:58;;;;;;;14.48;4.18;;;23.00;93.80;;;;;;5024656;28;20083;-51
2022/06/11 11:31:38;;;;;;;12.48;3.92;;;22.90;95.20;;;;;;5023265;28;20420;-50
2022/06/11 11:34:12;;;;;;;18.88;3.85;;;22.70;94.20;;;;;;5024675;28;20045;-48
2022/06/11 11:36:45;;;;;;;11.50;3.58;;;22.70;95.10;;;;;;5024468;28;20563;-46
2022/06/11 11:39:17;;;;;;;11.93;3.42;;;22.50;93.90;;;;;;5021561;28;20074;-50
2022/06/11 11:42:05;;;;;;;12.07;3.67;;;22.50;94.30;;;;;;5021632;28;20611;-48
2022/06/11 11:44:38;;;;;;;14.25;3.67;;;22.40;94.90;;;;;;5003805;28;20141;-47
2022/06/11 11:47:13;;;;;;;15.32;3.80;;;22.40;94.80;;;;;;5024155;28;20056;-46
2022/06/11 11:49:40;;;;;;;11.95;3.42;;;22.20;95.20;;;;;;5023633;28;20068;-48
2022/06/11 11:52:15;;;;;;;12.30;3.55;;;22.10;95.20;;;;;;5036230;28;20057;-46
2022/06/11 11:55:11;;;;;;;11.15;3.15;;;22.10;94.90;;;;;;5043210;28;20060;-46
2022/06/11 11:57:37;;;;;;;13.02;3.92;;;22.20;95.10;;;;;;5040940;28;20569;-46
2022/06/11 12:00:25;;;;;;;11.23;3.40;;;22.60;95.80;;;;;;5041952;28;20053;-45
2022/06/11 12:02:55;;;;;;;12.25;3.15;;;22.70;94.50;;;;;;5039492;28;20055;-48
2022/06/11 12:05:52;;;;;;;12.82;4.03;;;22.70;94.20;;;;;;5021146;28;20504;-48
2022/06/11 12:08:52;;;;;;;13.40;3.53;;;22.70;94.50;;;;;;5037759;28;20108;-45
2022/06/11 12:11:24;;;;;;;8.98;3.67;;;22.70;94.70;;;;;;5020234;28;20060;-46
2022/06/11 12:13:59;;;;;;;12.48;3.90;;;22.70;94.80;;;;;;5039132;28;20059;-47
2022/06/11 12:16:28;;;;;;;12.27;4.10;;;22.90;95.80;;;;;;5040255;28;20048;-47
2022/06/11 12:19:04;;;;;;;14.48;4.57;;;22.90;94.70;;;;;;5041301;28;20417;-46
2022/06/11 12:21:34;;;;;;;13.60;4.07;;;23.00;94.60;;;;;;5041228;28;20080;-46
2022/06/11 12:24:03;;;;;;;14.02;4.13;;;22.80;95.30;;;;;;5041129;28;20124;-48
2022/06/11 12:26:36;;;;;;;12.93;4.13;;;22.90;95.00;;;;;;5041237;28;20077;-46
2022/06/11 12:29:36;;;;;;;15.82;5.00;;;22.70;94.50;;;;;;5041030;28;20111;-47
2022/06/11 12:32:14;;;;;;;13.15;4.00;;;22.80;95.70;;;;;;4940814;29;20071;-47
2022/06/11 12:34:40;;;;;;;13.40;3.90;;;23.00;95.50;;;;;;4935361;29;20079;-46
2022/06/11 12:37:15;;;;;;;12.18;3.85;;;22.90;94.90;;;;;;4939763;29;20059;-48
2022/06/11 12:40:03;;;;;;;13.65;4.22;;;22.80;95.20;;;;;;4939914;29;20043;-46
2022/06/11 12:42:44;;;;;;;10.88;3.53;;;22.90;95.80;;;;;;4940295;29;20058;-46
2022/06/11 12:45:16;;;;;;;12.18;3.88;;;22.80;95.40;;;;;;4939937;29;20457;-46
2022/06/11 12:48:05;;;;;;;9.45;3.67;;;22.70;95.30;;;;;;4940205;29;20051;-49
2022/06/11 12:50:50;;;;;;;10.25;3.55;;;22.70;94.60;;;;;;4940226;29;20834;-49
2022/06/11 12:53:30;;;;;;;12.52;4.10;;;22.70;95.70;;;;;;4938660;29;20114;-50
2022/06/11 12:55:56;;;;;;;13.15;4.15;;;22.70;95.70;;;;;;4940639;29;20055;-51
2022/06/11 12:58:27;;;;;;;15.48;4.95;;;22.60;95.00;;;;;;4922242;29;20051;-46
2022/06/11 13:01:08;;;;;;;12.38;3.70;;;22.70;95.40;;;;;;4935253;29;20058;-47
2022/06/11 13:04:02;;;;;;;18.95;5.20;;;22.60;95.60;;;;;;4937409;29;20076;-46
2022/06/11 13:07:11;;;;;;;11.50;3.80;;;22.70;96.20;;;;;;4940065;29;20090;-46
2022/06/11 13:09:49;;;;;;;12.60;4.03;;;22.60;95.50;;;;;;5013330;28;20069;-46
2022/06/11 13:12:42;;;;;;;16.25;4.30;;;22.40;96.40;;;;;;5020843;28;20081;-46
2022/06/11 13:15:36;;;;;;;20.83;6.18;;;22.40;96.30;;;;;;5000044;28;20139;-46